Observation data for Tatum on 02/13/2017      Previous  Date  Next       Current Mesonet Observations  Soil Data  Daily Summary Page  Observations in Plain Language
KTAT 130600Z 06014KT 07/M10 A3035 RMK A01 T00651101  RH  030%=      5-min Rain = 0
KTAT 130605Z 07017KT 06/M10 A3034 RMK A01 T00641104  RH  029%=      5-min Rain = 0
KTAT 130610Z 07015G20KT 06/M10 A3034 RMK A01 T00631104  RH  029%=      5-min Rain = 0
KTAT 130615Z 07015G20KT 06/M11 A3034 RMK A01 T00631105  RH  029%=      5-min Rain = 0
KTAT 130620Z 08011KT 06/M10 A3036 RMK A01 T00621104  RH  029%=      5-min Rain = 0
KTAT 130625Z 08009KT 06/M10 A3037 RMK A01 T00621104  RH  030%=      5-min Rain = 0
KTAT 130630Z 07011KT 06/M11 A3036 RMK A01 T00621105  RH  029%=      5-min Rain = 0
KTAT 130635Z 06013G19KT 06/M11 A3034 RMK A01 T00611105  RH  030%=      5-min Rain = 0
KTAT 130640Z 08010G17KT 06/M10 A3036 RMK A01 T00601101  RH  031%=      5-min Rain = 0
KTAT 130645Z 07006KT 06/M09 A3038 RMK A01 T00571086  RH  035%=      5-min Rain = 0
KTAT 130650Z 05007KT 06/M10 A3037 RMK A01 T00571096  RH  033%=      5-min Rain = 0
KTAT 130655Z 06010KT 06/M10 A3036 RMK A01 T00581099  RH  032%=      5-min Rain = 0
KTAT 130700Z 06011KT 06/M10 A3035 RMK A01 T00581102  RH  031%=      5-min Rain = 0
KTAT 130705Z 05009KT 06/M10 A3034 RMK A01 T00581102  RH  031%=      5-min Rain = 0
KTAT 130710Z 06009KT 06/M10 A3035 RMK A01 T00581103  RH  031%=      5-min Rain = 0
KTAT 130715Z 06010KT 06/M10 A3035 RMK A01 T00581104  RH  031%=      5-min Rain = 0
KTAT 130720Z 07011KT 06/M10 A3034 RMK A01 T00581103  RH  031%=      5-min Rain = 0
KTAT 130725Z 05013KT 06/M10 A3031 RMK A01 T00571104  RH  031%=      5-min Rain = 0
KTAT 130730Z 06015KT 06/M10 A3031 RMK A01 T00561104  RH  031%=      5-min Rain = 0
KTAT 130735Z 07014KT 06/M09 A3031 RMK A01 T00551094  RH  034%=      5-min Rain = 0
KTAT 130740Z 07014KT 05/M07 A3031 RMK A01 T00481066  RH  044%=      5-min Rain = 0
KTAT 130745Z 06012KT 04/M06 A3031 RMK A01 T00431056  RH  049%=      5-min Rain = 0
KTAT 130750Z 07009KT 04/M05 A3031 RMK A01 T00421054  RH  051%=      5-min Rain = 0
KTAT 130755Z 07009KT 04/M05 A3031 RMK A01 T00401050  RH  052%=      5-min Rain = 0
KTAT 130800Z 07007KT 04/M05 A3032 RMK A01 T00401049  RH  053%=      5-min Rain = 0
KTAT 130805Z 07006KT 04/M04 A3033 RMK A01 T00391042  RH  056%=      5-min Rain = 0
KTAT 130810Z 06007KT 04/M04 A3032 RMK A01 T00381039  RH  058%=      5-min Rain = 0
KTAT 130815Z 06008KT 04/M04 A3032 RMK A01 T00361036  RH  060%=      5-min Rain = 0
KTAT 130820Z 07011KT 03/M04 A3031 RMK A01 T00341035  RH  061%=      5-min Rain = 0.01
KTAT 130825Z 08009KT 03/M03 A3032 RMK A01 T00311033  RH  064%=      5-min Rain = 0
KTAT 130830Z 11004KT 03/M04 A3035 RMK A01 T00301036  RH  062%=      5-min Rain = 0
KTAT 130835Z 09005KT 03/M03 A3034 RMK A01 T00291027  RH  068%=      5-min Rain = 0
KTAT 130840Z 09004KT 03/M03 A3034 RMK A01 T00281027  RH  068%=      5-min Rain = 0.01
KTAT 130845Z 10001KT 03/M03 A3035 RMK A01 T00271025  RH  069%=      5-min Rain = 0
KTAT 130850Z 07001KT 03/M03 A3035 RMK A01 T00271027  RH  068%=      5-min Rain = 0.01
KTAT 130855Z 05002KT 03/M02 A3035 RMK A01 T00271024  RH  070%=      5-min Rain = 0
KTAT 130900Z 06003KT 03/M02 A3034 RMK A01 T00271020  RH  072%=      5-min Rain = 0
KTAT 130905Z 06004KT 03/M02 A3034 RMK A01 T00261019  RH  073%=      5-min Rain = 0
KTAT 130910Z 05004KT 03/M02 A3033 RMK A01 T00261017  RH  074%=      5-min Rain = 0
KTAT 130915Z 04005KT 03/M02 A3032 RMK A01 T00251015  RH  075%=      5-min Rain = 0.01
KTAT 130920Z 04006KT 03/M01 A3032 RMK A01 T00251013  RH  077%=      5-min Rain = 0
KTAT 130925Z 04008KT 02/M01 A303 RMK A01 T00231012  RH  078%=      5-min Rain = 0
KTAT 130930Z 05010KT 02/M02 A303 RMK A01 T00211017  RH  077%=      5-min Rain = 0.01
KTAT 130935Z 05008KT 02/M02 A303 RMK A01 T00191016  RH  078%=      5-min Rain = 0
KTAT 130940Z 04006KT 02/M01 A303 RMK A01 T00191013  RH  080%=      5-min Rain = 0
KTAT 130945Z 04006KT 02/M02 A303 RMK A01 T00191015  RH  079%=      5-min Rain = 0.01
KTAT 130950Z 04006KT 02/M01 A303 RMK A01 T00171014  RH  081%=      5-min Rain = 0.01
KTAT 130955Z 05007KT 02/M01 A303 RMK A01 T00161013  RH  082%=      5-min Rain = 0.01
KTAT 131000Z 04008KT 02/M01 A3029 RMK A01 T00151013  RH  083%=      5-min Rain = 0.01
KTAT 131005Z 04009KT 01/M01 A3028 RMK A01 T00131014  RH  083%=      5-min Rain = 0.01
KTAT 131010Z 04008KT 01/M01 A3028 RMK A01 T00121013  RH  084%=      5-min Rain = 0.01
KTAT 131015Z 03007KT 01/M01 A3028 RMK A01 T00111014  RH  084%=      5-min Rain = 0.01
KTAT 131020Z 03005KT 01/M01 A3029 RMK A01 T00111014  RH  084%=      5-min Rain = 0
KTAT 131025Z 03006KT 01/M02 A3028 RMK A01 T00111015  RH  084%=      5-min Rain = 0
KTAT 131030Z 02007KT 01/M01 A3028 RMK A01 T00111013  RH  085%=      5-min Rain = 0.01
KTAT 131035Z 01006KT 01/M01 A3028 RMK A01 T00121012  RH  085%=      5-min Rain = 0
KTAT 131040Z 02005KT 01/M01 A3029 RMK A01 T00131012  RH  085%=      5-min Rain = 0
KTAT 131045Z 02006KT 01/M01 A3029 RMK A01 T00121013  RH  084%=      5-min Rain = 0
KTAT 131050Z 02005KT 01/M01 A3029 RMK A01 T00121012  RH  085%=      5-min Rain = 0
KTAT 131055Z 03005KT 01/M01 A3029 RMK A01 T00121011  RH  085%=      5-min Rain = 0
KTAT 131100Z 02007KT 01/M01 A3028 RMK A01 T00121012  RH  085%=      5-min Rain = 0.01
KTAT 131105Z 01007KT 01/M01 A3028 RMK A01 T00111012  RH  086%=      5-min Rain = 0
KTAT 131110Z 02007KT 01/M01 A3028 RMK A01 T00111012  RH  086%=      5-min Rain = 0
KTAT 131115Z 02008KT 01/M01 A3027 RMK A01 T00111011  RH  086%=      5-min Rain = 0
KTAT 131120Z 03010KT 01/M01 A3026 RMK A01 T00111011  RH  086%=      5-min Rain = 0
KTAT 131125Z 03008KT 01/M01 A3026 RMK A01 T00111011  RH  086%=      5-min Rain = 0
KTAT 131130Z 03008KT 01/M01 A3027 RMK A01 T00111011  RH  086%=      5-min Rain = 0.01
KTAT 131135Z 02009KT 01/M01 A3026 RMK A01 T00111011  RH  086%=      5-min Rain = 0
KTAT 131140Z 02008KT 01/M01 A3026 RMK A01 T00111013  RH  085%=      5-min Rain = 0
KTAT 131145Z 02008KT 01/M01 A3026 RMK A01 T00111011  RH  086%=      5-min Rain = 0
KTAT 131150Z 02008KT 01/M01 A3026 RMK A01 T00111011  RH  086%=      5-min Rain = 0
KTAT 131155Z 01008KT 01/M01 A3026 RMK A01 T00111011  RH  086%=      5-min Rain = 0
KTAT 131200Z 03009KT 01/M01 A3026 RMK A01 T00111012  RH  086%=      5-min Rain = 0
KTAT 131205Z 03008KT 01/M01 A3026 RMK A01 T00111014  RH  085%=      5-min Rain = 0
KTAT 131210Z 03009KT 01/M01 A3025 RMK A01 T00111013  RH  085%=      5-min Rain = 0
KTAT 131215Z 02009KT 01/M01 A3025 RMK A01 T00111012  RH  085%=      5-min Rain = 0
KTAT 131220Z 02008KT 01/M01 A3025 RMK A01 T00111013  RH  085%=      5-min Rain = 0
KTAT 131225Z 02008KT 01/M01 A3025 RMK A01 T00121012  RH  085%=      5-min Rain = 0
KTAT 131230Z 02007KT 01/M01 A3025 RMK A01 T00121010  RH  086%=      5-min Rain = 0
KTAT 131235Z 02011KT 01/M01 A3024 RMK A01 T00121010  RH  086%=      5-min Rain = 0
KTAT 131240Z 03010KT 01/M01 A3024 RMK A01 T00121012  RH  085%=      5-min Rain = 0
KTAT 131245Z 03009KT 01/M01 A3024 RMK A01 T00121011  RH  086%=      5-min Rain = 0
KTAT 131250Z 02007KT 01/M01 A3025 RMK A01 T00121012  RH  085%=      5-min Rain = 0
KTAT 131255Z 03006KT 01/M01 A3026 RMK A01 T00131011  RH  085%=      5-min Rain = 0
KTAT 131300Z 02005KT 01/M01 A3027 RMK A01 T00131012  RH  084%=      5-min Rain = 0
KTAT 131305Z 35003KT 01/M01 A3028 RMK A01 T00131012  RH  084%=      5-min Rain = 0
KTAT 131310Z 01003KT 02/M01 A3029 RMK A01 T00151011  RH  084%=      5-min Rain = 0
KTAT 131315Z 02009G14KT 01/M01 A3026 RMK A01 T00131011  RH  085%=      5-min Rain = 0.01
KTAT 131320Z 02008KT 01/M01 A3026 RMK A01 T00091013  RH  086%=      5-min Rain = 0.01
KTAT 131325Z 05010KT 01/M01 A3026 RMK A01 T00081012  RH  088%=      5-min Rain = 0.01
KTAT 131330Z 04009G14KT 01/M01 A3025 RMK A01 T00061012  RH  088%=      5-min Rain = 0.01
KTAT 131335Z 02005KT 01/M01 A3027 RMK A01 T00061011  RH  089%=      5-min Rain = 0
KTAT 131340Z 03008KT 01/M01 A3025 RMK A01 T00071010  RH  089%=      5-min Rain = 0
KTAT 131345Z 04007KT 01/M01 A3025 RMK A01 T00071010  RH  089%=      5-min Rain = 0
KTAT 131350Z 04008KT 01/M01 A3025 RMK A01 T00071010  RH  089%=      5-min Rain = 0
KTAT 131355Z 02006KT 01/M01 A3026 RMK A01 T00071010  RH  089%=      5-min Rain = 0.01
KTAT 131400Z 01007KT 01/M01 A3025 RMK A01 T00081008  RH  090%=      5-min Rain = 0
KTAT 131405Z 02009KT 01/M01 A3024 RMK A01 T00091007  RH  090%=      5-min Rain = 0
KTAT 131410Z 02007KT 01/M01 A3024 RMK A01 T00111005  RH  090%=      5-min Rain = 0
KTAT 131415Z 02008KT 01/M01 A3024 RMK A01 T00111007  RH  089%=      5-min Rain = 0
KTAT 131420Z 03009KT 01/M01 A3023 RMK A01 T00111009  RH  088%=      5-min Rain = 0
KTAT 131425Z 03009KT 01/M01 A3024 RMK A01 T00111009  RH  088%=      5-min Rain = 0
KTAT 131430Z 02008KT 01/M01 A3024 RMK A01 T00121007  RH  088%=      5-min Rain = 0
KTAT 131435Z 02006KT 01/M01 A3025 RMK A01 T00121006  RH  089%=      5-min Rain = 0
KTAT 131440Z 02008KT 01/M01 A3025 RMK A01 T00131006  RH  089%=      5-min Rain = 0
KTAT 131445Z 02007KT 01/M00 A3025 RMK A01 T00141003  RH  089%=      5-min Rain = 0
KTAT 131450Z 02007KT 01/M00 A3025 RMK A01 T00141004  RH  089%=      5-min Rain = 0
KTAT 131455Z 01008KT 01/M01 A3025 RMK A01 T00141005  RH  088%=      5-min Rain = 0
KTAT 131500Z 02010KT 02/M00 A3024 RMK A01 T00151003  RH  089%=      5-min Rain = 0
KTAT 131505Z 01009KT 02/M00 A3023 RMK A01 T00151003  RH  089%=      5-min Rain = 0
KTAT 131510Z 00008KT 01/M00 A3025 RMK A01 T00141004  RH  088%=      5-min Rain = 0
KTAT 131515Z 00008KT 01/M00 A3025 RMK A01 T00141004  RH  089%=      5-min Rain = 0
KTAT 131520Z 00008KT 01/M00 A3025 RMK A01 T00141004  RH  089%=      5-min Rain = 0
KTAT 131525Z 01009KT 01/M00 A3024 RMK A01 T00141004  RH  089%=      5-min Rain = 0
KTAT 131530Z 03009KT 01/M01 A3024 RMK A01 T00141005  RH  089%=      5-min Rain = 0
KTAT 131535Z 04008KT 01/M01 A3024 RMK A01 T00131007  RH  088%=      5-min Rain = 0.01
KTAT 131540Z 04009KT 01/M01 A3024 RMK A01 T00121007  RH  088%=      5-min Rain = 0
KTAT 131545Z 04010KT 01/M00 A3022 RMK A01 T00131003  RH  090%=      5-min Rain = 0.02
KTAT 131550Z 04008KT 01/M00 A3023 RMK A01 T00121004  RH  090%=      5-min Rain = 0
KTAT 131555Z 04008KT 01/M00 A3022 RMK A01 T00111004  RH  090%=      5-min Rain = 0
KTAT 131600Z 04008KT 01/M00 A3022 RMK A01 T00111004  RH  091%=      5-min Rain = 0
KTAT 131605Z 03008KT 01/M00 A3022 RMK A01 T00111004  RH  090%=      5-min Rain = 0.01
KTAT 131610Z 04007KT 01/M00 A3022 RMK A01 T00121003  RH  091%=      5-min Rain = 0
KTAT 131615Z 04008KT 01/M00 A3022 RMK A01 T00131002  RH  091%=      5-min Rain = 0
KTAT 131620Z 04008KT 01/M00 A3022 RMK A01 T00131002  RH  091%=      5-min Rain = 0
KTAT 131625Z 03005KT 01/00 A3022 RMK A01 T001400-0  RH  091%=      5-min Rain = 0
KTAT 131630Z 03006KT 02/00 A3022 RMK A01 T00150000  RH  091%=      5-min Rain = 0.01
KTAT 131635Z 03006KT 02/00 A3022 RMK A01 T00160002  RH  092%=      5-min Rain = 0
KTAT 131640Z 03005KT 02/00 A3022 RMK A01 T00160002  RH  091%=      5-min Rain = 0
KTAT 131645Z 03007KT 02/00 A3022 RMK A01 T00160001  RH  091%=      5-min Rain = 0
KTAT 131650Z 04006KT 02/00 A3023 RMK A01 T00160001  RH  091%=      5-min Rain = 0
KTAT 131655Z 04006KT 02/00 A3023 RMK A01 T00160001  RH  091%=      5-min Rain = 0
KTAT 131700Z 03006KT 02/00 A3022 RMK A01 T00160001  RH  091%=      5-min Rain = 0
KTAT 131705Z 03007KT 02/00 A3022 RMK A01 T00160002  RH  091%=      5-min Rain = 0
KTAT 131710Z 02008KT 02/00 A3021 RMK A01 T00170002  RH  091%=      5-min Rain = 0
KTAT 131715Z 03007KT 02/00 A3021 RMK A01 T00170002  RH  091%=      5-min Rain = 0
KTAT 131720Z 03007KT 02/00 A3021 RMK A01 T00170002  RH  091%=      5-min Rain = 0
KTAT 131725Z 03007KT 02/00 A3021 RMK A01 T00170003  RH  091%=      5-min Rain = 0
KTAT 131730Z 03008KT 02/00 A3021 RMK A01 T00170002  RH  091%=      5-min Rain = 0
KTAT 131735Z 04007KT 02/M00 A3021 RMK A01 T00151003  RH  089%=      5-min Rain = 0
KTAT 131740Z 04007KT 02/M00 A3021 RMK A01 T00161002  RH  089%=      5-min Rain = 0
KTAT 131745Z 03008KT 02/M00 A302 RMK A01 T00161002  RH  089%=      5-min Rain = 0
KTAT 131750Z 04008KT 02/M00 A3021 RMK A01 T00161002  RH  089%=      5-min Rain = 0
KTAT 131755Z 04008KT 02/M00 A302 RMK A01 T00161002  RH  089%=      5-min Rain = 0
KTAT 131800Z 03007KT 02/00 A302 RMK A01 T00170000  RH  089%=      5-min Rain = 0
KTAT 131805Z 04008KT 02/00 A3019 RMK A01 T00180001  RH  090%=      5-min Rain = 0
KTAT 131810Z 04008KT 02/00 A3019 RMK A01 T00190004  RH  090%=      5-min Rain = 0
KTAT 131815Z 03009KT 02/00 A3018 RMK A01 T00180003  RH  091%=      5-min Rain = 0
KTAT 131820Z 03009KT 02/00 A3018 RMK A01 T00170003  RH  091%=      5-min Rain = 0
KTAT 131825Z 04009KT 02/00 A3018 RMK A01 T00170002  RH  091%=      5-min Rain = 0
KTAT 131830Z 03009KT 02/00 A3017 RMK A01 T00170002  RH  091%=      5-min Rain = 0
KTAT 131835Z 03009KT 02/00 A3017 RMK A01 T00170003  RH  092%=      5-min Rain = 0
KTAT 131840Z 02009KT 02/00 A3017 RMK A01 T00160002  RH  091%=      5-min Rain = 0
KTAT 131845Z 03008KT 02/00 A3017 RMK A01 T00160003  RH  092%=      5-min Rain = 0
KTAT 131850Z 03009KT 02/00 A3016 RMK A01 T00170003  RH  092%=      5-min Rain = 0
KTAT 131855Z 02007KT 02/00 A3016 RMK A01 T00170003  RH  092%=      5-min Rain = 0
KTAT 131900Z 02007KT 02/00 A3016 RMK A01 T00160003  RH  092%=      5-min Rain = 0
KTAT 131905Z 04008KT 02/00 A3016 RMK A01 T00170003  RH  092%=      5-min Rain = 0
KTAT 131910Z 04008KT 02/00 A3015 RMK A01 T00160002  RH  092%=      5-min Rain = 0
KTAT 131915Z 03007KT 02/00 A3015 RMK A01 T00170003  RH  092%=      5-min Rain = 0
KTAT 131920Z 04007KT 02/00 A3014 RMK A01 T00170003  RH  092%=      5-min Rain = 0
KTAT 131925Z 04007KT 02/00 A3014 RMK A01 T00170003  RH  091%=      5-min Rain = 0
KTAT 131930Z 04006KT 02/00 A3014 RMK A01 T00170003  RH  091%=      5-min Rain = 0
KTAT 131935Z 05006KT 02/00 A3014 RMK A01 T00170003  RH  091%=      5-min Rain = 0
KTAT 131940Z 04006KT 02/00 A3013 RMK A01 T00170003  RH  092%=      5-min Rain = 0
KTAT 131945Z 04007KT 02/01 A3013 RMK A01 T00180005  RH  092%=      5-min Rain = 0
KTAT 131950Z 04007KT 02/00 A3012 RMK A01 T00180004  RH  092%=      5-min Rain = 0
KTAT 131955Z 04007KT 02/00 A3012 RMK A01 T00170004  RH  092%=      5-min Rain = 0
KTAT 132000Z 03008KT 02/00 A3011 RMK A01 T00170003  RH  092%=      5-min Rain = 0
KTAT 132005Z 04007KT 02/00 A3011 RMK A01 T00170004  RH  092%=      5-min Rain = 0
KTAT 132010Z 03007KT 02/00 A301 RMK A01 T00180004  RH  092%=      5-min Rain = 0
KTAT 132015Z 02006KT 02/01 A301 RMK A01 T00210008  RH  092%=      5-min Rain = 0
KTAT 132020Z 02007KT 02/01 A301 RMK A01 T00190005  RH  091%=      5-min Rain = 0
KTAT 132025Z 01006KT 02/00 A301 RMK A01 T00190004  RH  091%=      5-min Rain = 0
KTAT 132030Z 02007KT 02/01 A301 RMK A01 T00190005  RH  091%=      5-min Rain = 0
KTAT 132035Z 00007KT 02/01 A3009 RMK A01 T00210007  RH  092%=      5-min Rain = 0
KTAT 132040Z 01007KT 02/01 A3009 RMK A01 T00210007  RH  092%=      5-min Rain = 0
KTAT 132045Z 00008KT 02/01 A3007 RMK A01 T00220008  RH  092%=      5-min Rain = 0
KTAT 132050Z 01008KT 02/01 A3007 RMK A01 T00220008  RH  092%=      5-min Rain = 0
KTAT 132055Z 00009KT 02/01 A3007 RMK A01 T00220009  RH  092%=      5-min Rain = 0
KTAT 132100Z 34008KT 02/01 A3008 RMK A01 T00220009  RH  092%=      5-min Rain = 0
KTAT 132105Z 33009KT 02/01 A3009 RMK A01 T00230009  RH  092%=      5-min Rain = 0
KTAT 132110Z 33009KT 02/01 A3009 RMK A01 T00220008  RH  091%=      5-min Rain = 0
KTAT 132115Z 35009KT 02/01 A3008 RMK A01 T00220008  RH  091%=      5-min Rain = 0
KTAT 132120Z 36009KT 02/01 A3008 RMK A01 T00230008  RH  091%=      5-min Rain = 0
KTAT 132125Z 36010KT 02/01 A3008 RMK A01 T00220007  RH  091%=      5-min Rain = 0
KTAT 132130Z 35009KT 02/01 A3007 RMK A01 T00230009  RH  091%=      5-min Rain = 0
KTAT 132135Z 35007KT 02/01 A3008 RMK A01 T00230007  RH  090%=      5-min Rain = 0
KTAT 132140Z 02006KT 02/01 A3008 RMK A01 T00230006  RH  090%=      5-min Rain = 0.01
KTAT 132145Z 01009KT 02/01 A3007 RMK A01 T00220006  RH  090%=      5-min Rain = 0.02
KTAT 132150Z 00004KT 02/01 A3008 RMK A01 T00210005  RH  090%=      5-min Rain = 0.01
KTAT 132155Z 34003KT 02/01 A3009 RMK A01 T00210006  RH  091%=      5-min Rain = 0
KTAT 132200Z 31002KT 02/01 A301 RMK A01 T00220007  RH  091%=      5-min Rain = 0.01
KTAT 132205Z 36005KT 02/01 A3009 RMK A01 T00220007  RH  091%=      5-min Rain = 0
KTAT 132210Z 03010G15KT 02/01 A3005 RMK A01 T00230010  RH  092%=      5-min Rain = 0.01
KTAT 132215Z 05012KT 02/01 A3004 RMK A01 T00240012  RH  093%=      5-min Rain = 0
KTAT 132220Z 05012KT 03/01 A3004 RMK A01 T00250012  RH  092%=      5-min Rain = 0
KTAT 132225Z 07008KT 03/01 A3006 RMK A01 T00260013  RH  092%=      5-min Rain = 0
KTAT 132230Z 06010KT 03/01 A3006 RMK A01 T00270013  RH  092%=      5-min Rain = 0
KTAT 132235Z 06007KT 03/01 A3007 RMK A01 T00270014  RH  092%=      5-min Rain = 0
KTAT 132240Z 06006KT 03/02 A3007 RMK A01 T00290015  RH  092%=      5-min Rain = 0
KTAT 132245Z 06005KT 03/01 A3009 RMK A01 T00270012  RH  091%=      5-min Rain = 0
KTAT 132250Z 07002KT 03/01 A301 RMK A01 T00260010  RH  091%=      5-min Rain = 0
KTAT 132255Z 15001KT 03/01 A3011 RMK A01 T00250010  RH  090%=      5-min Rain = 0
KTAT 132300Z 23003KT 03/01 A3011 RMK A01 T00260010  RH  090%=      5-min Rain = 0
KTAT 132305Z 24001KT 03/01 A301 RMK A01 T00270011  RH  090%=      5-min Rain = 0.01
KTAT 132310Z 35003KT 03/01 A3008 RMK A01 T00250008  RH  090%=      5-min Rain = 0
KTAT 132315Z 36005KT 03/01 A3008 RMK A01 T00250009  RH  090%=      5-min Rain = 0.01
KTAT 132320Z 34007KT 03/01 A3007 RMK A01 T00260011  RH  091%=      5-min Rain = 0
KTAT 132325Z 35006KT 03/01 A3007 RMK A01 T00260012  RH  091%=      5-min Rain = 0.01
KTAT 132330Z 00007KT 03/01 A3006 RMK A01 T00250011  RH  091%=      5-min Rain = 0.01
KTAT 132335Z 01007KT 03/01 A3006 RMK A01 T00250011  RH  092%=      5-min Rain = 0
KTAT 132340Z 00006KT 03/01 A3007 RMK A01 T00260012  RH  092%=      5-min Rain = 0
KTAT 132345Z 01006KT 03/01 A3007 RMK A01 T00260012  RH  092%=      5-min Rain = 0
KTAT 132350Z 00008KT 03/01 A3006 RMK A01 T00260012  RH  092%=      5-min Rain = 0.01
KTAT 132355Z 02010KT 03/01 A3005 RMK A01 T00260012  RH  091%=      5-min Rain = 0
KTAT 140000Z 02009KT 03/01 A3005 RMK A01 T00260011  RH  091%=      5-min Rain = 0
KTAT 140005Z 03008KT 03/01 A3006 RMK A01 T00260012  RH  091%=      5-min Rain = 0
KTAT 140010Z 03007KT 03/01 A3006 RMK A01 T00260012  RH  091%=      5-min Rain = 0
KTAT 140015Z 03007KT 03/01 A3006 RMK A01 T00260011  RH  091%=      5-min Rain = 0
KTAT 140020Z 03007KT 03/01 A3006 RMK A01 T00260011  RH  091%=      5-min Rain = 0
KTAT 140025Z 03006KT 03/01 A3007 RMK A01 T00260012  RH  091%=      5-min Rain = 0
KTAT 140030Z 04004KT 03/01 A3007 RMK A01 T00260012  RH  091%=      5-min Rain = 0
KTAT 140035Z 02004KT 03/01 A3007 RMK A01 T00260011  RH  091%=      5-min Rain = 0
KTAT 140040Z 02003KT 03/01 A3008 RMK A01 T00260011  RH  091%=      5-min Rain = 0
KTAT 140045Z 01002KT 03/01 A3008 RMK A01 T00260011  RH  091%=      5-min Rain = 0
KTAT 140050Z 35003KT 03/01 A3008 RMK A01 T00270011  RH  091%=      5-min Rain = 0
KTAT 140055Z 01003KT 03/01 A3007 RMK A01 T00270011  RH  090%=      5-min Rain = 0
KTAT 140100Z 02005KT 03/01 A3006 RMK A01 T00260011  RH  090%=      5-min Rain = 0
KTAT 140105Z 03005KT 03/01 A3006 RMK A01 T00260011  RH  091%=      5-min Rain = 0
KTAT 140110Z 02004KT 03/01 A3007 RMK A01 T00270012  RH  091%=      5-min Rain = 0
KTAT 140115Z 02005KT 03/01 A3007 RMK A01 T00260011  RH  091%=      5-min Rain = 0
KTAT 140120Z 02004KT 03/01 A3007 RMK A01 T00270011  RH  091%=      5-min Rain = 0
KTAT 140125Z 01005KT 03/01 A3007 RMK A01 T00270012  RH  091%=      5-min Rain = 0
KTAT 140130Z 02006KT 03/01 A3007 RMK A01 T00270012  RH  091%=      5-min Rain = 0
KTAT 140135Z 01004KT 03/01 A3007 RMK A01 T00280013  RH  091%=      5-min Rain = 0
KTAT 140140Z 01005KT 03/01 A3007 RMK A01 T00280013  RH  091%=      5-min Rain = 0
KTAT 140145Z 03005KT 03/01 A3007 RMK A01 T00280013  RH  091%=      5-min Rain = 0
KTAT 140150Z 03005KT 03/01 A3007 RMK A01 T00270013  RH  091%=      5-min Rain = 0
KTAT 140155Z 02004KT 03/01 A3007 RMK A01 T00280014  RH  091%=      5-min Rain = 0
KTAT 140200Z 01004KT 03/01 A3008 RMK A01 T00280014  RH  091%=      5-min Rain = 0
KTAT 140205Z 01005KT 03/01 A3008 RMK A01 T00280013  RH  091%=      5-min Rain = 0
KTAT 140210Z 02003KT 03/01 A3008 RMK A01 T00280013  RH  091%=      5-min Rain = 0
KTAT 140215Z 02003KT 03/01 A3008 RMK A01 T00280013  RH  091%=      5-min Rain = 0
KTAT 140220Z 02004KT 03/01 A3008 RMK A01 T00280013  RH  091%=      5-min Rain = 0
KTAT 140225Z 01006KT 03/01 A3007 RMK A01 T00280013  RH  091%=      5-min Rain = 0
KTAT 140230Z 00006KT 03/01 A3008 RMK A01 T00280014  RH  091%=      5-min Rain = 0
KTAT 140235Z 00006KT 03/01 A3008 RMK A01 T00280013  RH  091%=      5-min Rain = 0
KTAT 140240Z 36007KT 03/01 A3008 RMK A01 T00280012  RH  090%=      5-min Rain = 0
KTAT 140245Z 36007KT 03/01 A3008 RMK A01 T00280012  RH  090%=      5-min Rain = 0
KTAT 140250Z 00007KT 03/01 A3007 RMK A01 T00280012  RH  090%=      5-min Rain = 0
KTAT 140255Z 36007KT 03/01 A3007 RMK A01 T00280012  RH  091%=      5-min Rain = 0
KTAT 140300Z 35007KT 03/01 A3007 RMK A01 T00280013  RH  091%=      5-min Rain = 0
KTAT 140305Z 35007KT 03/01 A3007 RMK A01 T00280013  RH  091%=      5-min Rain = 0
KTAT 140310Z 35007KT 03/01 A3007 RMK A01 T00280012  RH  090%=      5-min Rain = 0
KTAT 140315Z 35007KT 03/01 A3007 RMK A01 T00280012  RH  091%=      5-min Rain = 0
KTAT 140320Z 34008KT 03/01 A3007 RMK A01 T00280012  RH  090%=      5-min Rain = 0
KTAT 140325Z 35008KT 03/01 A3007 RMK A01 T00270011  RH  090%=      5-min Rain = 0
KTAT 140330Z 35008KT 03/01 A3007 RMK A01 T00280011  RH  090%=      5-min Rain = 0
KTAT 140335Z 35007KT 03/01 A3007 RMK A01 T00280011  RH  090%=      5-min Rain = 0
KTAT 140340Z 35008KT 03/01 A3007 RMK A01 T00280012  RH  090%=      5-min Rain = 0
KTAT 140345Z 34008KT 03/01 A3007 RMK A01 T00280011  RH  090%=      5-min Rain = 0
KTAT 140350Z 34008KT 03/01 A3007 RMK A01 T00280011  RH  090%=      5-min Rain = 0
KTAT 140355Z 34007KT 03/01 A3006 RMK A01 T00280012  RH  090%=      5-min Rain = 0
KTAT 140400Z 34008KT 03/01 A3006 RMK A01 T00280012  RH  090%=      5-min Rain = 0
KTAT 140405Z 33009KT 03/01 A3006 RMK A01 T00280012  RH  090%=      5-min Rain = 0
KTAT 140410Z 33010KT 03/01 A3005 RMK A01 T00280012  RH  090%=      5-min Rain = 0
KTAT 140415Z 34009KT 03/01 A3005 RMK A01 T00280013  RH  091%=      5-min Rain = 0
KTAT 140420Z 33009KT 03/01 A3005 RMK A01 T00290014  RH  091%=      5-min Rain = 0
KTAT 140425Z 33010KT 03/01 A3004 RMK A01 T00290014  RH  091%=      5-min Rain = 0
KTAT 140430Z 33010KT 03/01 A3004 RMK A01 T00290013  RH  091%=      5-min Rain = 0
KTAT 140435Z 33010KT 03/01 A3004 RMK A01 T00280012  RH  090%=      5-min Rain = 0
KTAT 140440Z 33010KT 03/01 A3004 RMK A01 T00290012  RH  090%=      5-min Rain = 0
KTAT 140445Z 33011KT 03/01 A3004 RMK A01 T00280010  RH  089%=      5-min Rain = 0
KTAT 140450Z 33009KT 03/01 A3004 RMK A01 T00290011  RH  089%=      5-min Rain = 0
KTAT 140455Z 33010KT 03/01 A3004 RMK A01 T00290011  RH  089%=      5-min Rain = 0
KTAT 140500Z 34010KT 03/01 A3004 RMK A01 T00290011  RH  089%=      5-min Rain = 0
KTAT 140505Z 34009KT 03/01 A3004 RMK A01 T00290012  RH  089%=      5-min Rain = 0
KTAT 140510Z 34009KT 03/01 A3004 RMK A01 T00290011  RH  089%=      5-min Rain = 0
KTAT 140515Z 34008KT 03/01 A3005 RMK A01 T00290011  RH  089%=      5-min Rain = 0
KTAT 140520Z 34007KT 03/01 A3005 RMK A01 T00300012  RH  089%=      5-min Rain = 0
KTAT 140525Z 34007KT 03/01 A3005 RMK A01 T00300012  RH  089%=      5-min Rain = 0
KTAT 140530Z 34005KT 03/01 A3006 RMK A01 T00300012  RH  089%=      5-min Rain = 0
KTAT 140535Z 34004KT 03/01 A3006 RMK A01 T00300012  RH  089%=      5-min Rain = 0
KTAT 140540Z 34004KT 03/01 A3007 RMK A01 T00300011  RH  088%=      5-min Rain = 0
KTAT 140545Z 34002KT 03/01 A3007 RMK A01 T00310012  RH  088%=      5-min Rain = 0
KTAT 140550Z 34003KT 03/01 A3007 RMK A01 T00310011  RH  088%=      5-min Rain = 0
KTAT 140555Z 34005KT 03/01 A3006 RMK A01 T00310011  RH  088%=      5-min Rain = 0

Page generated in 0.0142 seconds.